createdAt,value
2022-08-16T00:00:03.185Z,11.77
2022-08-16T00:02:31.090Z,11.38
2022-08-16T00:05:00.112Z,11.43
2022-08-16T00:07:29.900Z,11.27
2022-08-16T00:09:58.822Z,11.70
2022-08-16T00:12:27.997Z,10.68
2022-08-16T00:14:56.917Z,10.70
2022-08-16T00:17:25.372Z,11.07
2022-08-16T00:19:55.168Z,10.95
2022-08-16T00:22:24.883Z,10.40
2022-08-16T00:24:54.286Z,10.40
2022-08-16T00:27:22.517Z,10.65
2022-08-16T00:30:08.365Z,10.98
2022-08-16T00:32:38.368Z,10.93
2022-08-16T00:35:15.315Z,9.95
2022-08-16T00:37:58.409Z,11.38
2022-08-16T00:40:43.826Z,10.93
2022-08-16T00:43:25.634Z,10.10
2022-08-16T00:46:33.984Z,10.80
2022-08-16T00:49:05.441Z,11.10
2022-08-16T00:51:32.468Z,12.27
2022-08-16T00:54:00.960Z,12.10
2022-08-16T00:56:58.301Z,12.35
2022-08-16T00:59:23.827Z,12.60
2022-08-16T01:01:51.629Z,11.70
2022-08-16T01:04:29.000Z,12.48
2022-08-16T01:07:01.707Z,11.18
2022-08-16T01:09:37.129Z,11.43
2022-08-16T01:12:08.725Z,11.57
2022-08-16T01:14:44.353Z,12.30
2022-08-16T01:17:15.329Z,11.40
2022-08-16T01:19:45.821Z,11.85
2022-08-16T01:22:49.862Z,11.07
2022-08-16T01:25:21.741Z,10.32
2022-08-16T01:27:52.753Z,11.07
2022-08-16T01:30:26.490Z,11.68
2022-08-16T01:33:02.705Z,10.63
2022-08-16T01:35:53.452Z,11.70
2022-08-16T01:38:34.005Z,10.10
2022-08-16T01:41:04.849Z,11.32
2022-08-16T01:43:33.011Z,11.38
2022-08-16T01:46:29.909Z,10.88
2022-08-16T01:48:55.113Z,10.15
2022-08-16T01:51:22.761Z,10.90
2022-08-16T01:53:55.545Z,11.15
2022-08-16T01:56:24.697Z,11.25
2022-08-16T01:58:55.038Z,11.63
2022-08-16T02:01:22.568Z,11.45
2022-08-16T02:03:51.933Z,11.57
2022-08-16T02:06:26.054Z,11.13
2022-08-16T02:09:05.034Z,11.73
2022-08-16T02:11:47.316Z,10.75
2022-08-16T02:14:18.245Z,11.98
2022-08-16T02:16:49.111Z,10.90
2022-08-16T02:19:18.553Z,10.93
2022-08-16T02:22:08.297Z,10.50
2022-08-16T02:24:41.073Z,11.18
2022-08-16T02:27:10.172Z,10.23
2022-08-16T02:29:37.833Z,10.10
2022-08-16T02:32:48.867Z,10.10
2022-08-16T02:35:00.076Z,10.43
2022-08-16T02:37:51.247Z,9.63
2022-08-16T02:40:19.127Z,10.48
2022-08-16T02:42:49.883Z,9.57
2022-08-16T02:45:20.007Z,10.13
2022-08-16T02:48:00.323Z,9.07
2022-08-16T02:50:55.159Z,9.23
2022-08-16T02:53:18.258Z,8.88
2022-08-16T02:55:50.559Z,7.82
2022-08-16T02:58:18.112Z,8.60
2022-08-16T03:00:45.537Z,8.75
2022-08-16T03:03:17.564Z,8.50
2022-08-16T03:05:50.057Z,8.63
2022-08-16T03:08:50.809Z,8.70
2022-08-16T03:11:16.598Z,8.20
2022-08-16T03:13:50.607Z,8.02
2022-08-16T03:16:38.491Z,7.95
2022-08-16T03:19:06.859Z,7.35
2022-08-16T03:21:38.127Z,7.55
2022-08-16T03:24:28.323Z,7.38
2022-08-16T03:26:58.903Z,7.80
2022-08-16T03:29:32.068Z,7.70
2022-08-16T03:32:01.304Z,8.15
2022-08-16T03:34:29.814Z,7.97
2022-08-16T03:36:57.509Z,8.23
2022-08-16T03:39:25.004Z,7.18
2022-08-16T03:41:59.240Z,7.63
2022-08-16T03:44:40.672Z,8.00
2022-08-16T03:47:12.277Z,7.15
2022-08-16T03:49:39.326Z,8.30
2022-08-16T03:52:07.114Z,7.93
2022-08-16T03:54:35.912Z,7.93
2022-08-16T03:57:04.971Z,7.43
2022-08-16T03:59:34.025Z,7.55
2022-08-16T04:02:01.685Z,7.75
2022-08-16T04:04:33.572Z,7.25
2022-08-16T04:07:05.841Z,7.40
2022-08-16T04:09:35.591Z,7.88
2022-08-16T04:12:10.715Z,7.63
2022-08-16T04:14:51.905Z,8.45
2022-08-16T04:17:18.875Z,6.78
2022-08-16T04:19:46.808Z,6.80
2022-08-16T04:22:17.139Z,6.22
2022-08-16T04:24:54.938Z,6.45
2022-08-16T04:27:24.498Z,7.05
2022-08-16T04:30:02.950Z,7.57
2022-08-16T04:32:30.905Z,7.65
2022-08-16T04:34:57.782Z,7.72
2022-08-16T04:37:25.524Z,8.00
2022-08-16T04:39:55.627Z,7.82
2022-08-16T04:42:26.281Z,7.25
2022-08-16T04:44:56.236Z,7.05
2022-08-16T04:47:33.332Z,7.00
2022-08-16T04:50:08.915Z,7.78
2022-08-16T04:52:36.526Z,6.15
2022-08-16T04:55:06.347Z,6.85
2022-08-16T04:57:34.626Z,6.85
2022-08-16T05:00:30.979Z,7.55
2022-08-16T05:02:55.638Z,6.90
2022-08-16T05:05:24.038Z,7.00
2022-08-16T05:07:58.537Z,6.85
2022-08-16T05:10:29.692Z,6.88
2022-08-16T05:12:58.043Z,6.80
2022-08-16T05:15:25.452Z,6.55
2022-08-16T05:17:58.845Z,7.00
2022-08-16T05:20:39.434Z,7.25
2022-08-16T05:23:15.052Z,7.68
2022-08-16T05:25:48.612Z,7.22
2022-08-16T05:28:17.292Z,7.07
2022-08-16T05:30:44.667Z,7.47
2022-08-16T05:33:16.713Z,7.63
2022-08-16T05:35:55.484Z,7.53
2022-08-16T05:38:32.790Z,6.88
2022-08-16T05:43:42.909Z,6.97
2022-08-16T05:46:28.838Z,6.63
2022-08-16T05:49:03.606Z,6.72
2022-08-16T05:51:37.523Z,5.85
2022-08-16T05:54:06.610Z,5.00
2022-08-16T05:56:34.160Z,5.95
2022-08-16T05:59:06.134Z,5.90
2022-08-16T06:01:38.311Z,5.95
2022-08-16T06:04:12.736Z,5.55
2022-08-16T06:06:41.956Z,6.10
2022-08-16T06:09:23.657Z,5.55
2022-08-16T06:11:51.302Z,5.60
2022-08-16T06:14:19.136Z,5.85
2022-08-16T06:16:50.843Z,6.20
2022-08-16T06:19:18.401Z,5.63
2022-08-16T06:21:54.874Z,6.03
2022-08-16T06:24:54.309Z,6.28
2022-08-16T06:27:10.025Z,5.88
2022-08-16T06:29:37.187Z,6.10
2022-08-16T06:32:04.963Z,5.15
2022-08-16T06:34:57.361Z,5.50
2022-08-16T06:37:21.370Z,4.85
2022-08-16T06:39:49.954Z,5.40
2022-08-16T06:42:18.345Z,5.28
2022-08-16T06:44:46.547Z,5.03
2022-08-16T06:47:17.098Z,4.85
2022-08-16T06:49:53.837Z,4.68
2022-08-16T06:53:00.185Z,5.28
2022-08-16T06:55:13.022Z,4.72
2022-08-16T06:57:41.690Z,4.93
2022-08-16T07:00:24.432Z,4.72
2022-08-16T07:02:53.913Z,5.47
2022-08-16T07:05:27.331Z,4.32
2022-08-16T07:08:11.416Z,4.82
2022-08-16T07:10:38.988Z,4.78
2022-08-16T07:13:16.770Z,4.65
2022-08-16T07:15:59.402Z,4.30
2022-08-16T07:18:27.357Z,3.92
2022-08-16T07:20:56.043Z,4.80
2022-08-16T07:23:37.396Z,4.55
2022-08-16T07:26:09.378Z,4.60
2022-08-16T07:28:36.337Z,4.57
2022-08-16T07:31:03.413Z,4.93
2022-08-16T07:33:52.446Z,4.95
2022-08-16T07:36:22.814Z,4.80
2022-08-16T07:38:50.453Z,4.90
2022-08-16T07:41:18.617Z,5.00
2022-08-16T07:43:46.249Z,4.15
2022-08-16T07:46:38.384Z,4.93
2022-08-16T07:49:04.691Z,5.10
2022-08-16T07:51:38.516Z,4.28
2022-08-16T07:54:09.976Z,4.45
2022-08-16T07:56:38.271Z,4.27
2022-08-16T07:59:06.308Z,4.28
2022-08-16T08:01:34.735Z,4.22
2022-08-16T08:04:03.439Z,4.18
2022-08-16T08:06:32.936Z,5.15
2022-08-16T08:09:00.824Z,4.30
2022-08-16T08:11:29.463Z,4.68
2022-08-16T08:14:03.131Z,4.65
2022-08-16T08:16:32.061Z,4.55
2022-08-16T08:19:02.291Z,4.43
2022-08-16T08:21:58.551Z,4.45
2022-08-16T08:24:17.793Z,4.45
2022-08-16T08:26:44.875Z,4.30
2022-08-16T08:29:22.527Z,3.72
2022-08-16T08:31:52.491Z,3.83
2022-08-16T08:34:22.128Z,4.28
2022-08-16T08:36:54.527Z,4.15
2022-08-16T08:39:22.494Z,4.28
2022-08-16T08:41:49.748Z,3.83
2022-08-16T08:44:28.563Z,3.92
2022-08-16T08:47:00.119Z,3.95
2022-08-16T08:49:46.226Z,3.42
2022-08-16T08:52:35.395Z,3.20
2022-08-16T08:55:09.498Z,4.10
2022-08-16T08:57:47.554Z,3.60
2022-08-16T09:00:21.209Z,4.00
2022-08-16T09:02:51.774Z,3.70
2022-08-16T09:05:20.543Z,4.15
2022-08-16T09:08:00.902Z,3.75
2022-08-16T09:10:29.991Z,3.45
2022-08-16T09:12:58.538Z,4.00
2022-08-16T09:15:27.166Z,3.65
2022-08-16T09:18:02.060Z,3.55
2022-08-16T09:20:59.625Z,3.40
2022-08-16T09:23:29.245Z,3.67
2022-08-16T09:25:56.155Z,4.10
2022-08-16T09:29:14.503Z,3.47
2022-08-16T09:31:10.756Z,3.60
2022-08-16T09:33:39.568Z,4.00
2022-08-16T09:36:11.761Z,3.97
2022-08-16T09:38:41.047Z,3.88
2022-08-16T09:41:14.383Z,4.45
2022-08-16T09:44:00.102Z,4.13
2022-08-16T09:46:44.848Z,3.83
2022-08-16T09:49:14.799Z,3.45
2022-08-16T09:51:42.870Z,3.88
2022-08-16T09:54:17.041Z,4.20
2022-08-16T09:56:52.163Z,3.95
2022-08-16T09:59:22.346Z,4.25
2022-08-16T10:01:51.599Z,4.00
2022-08-16T10:04:34.364Z,4.10
2022-08-16T10:07:14.984Z,3.90
2022-08-16T10:09:53.886Z,4.05
2022-08-16T10:12:55.927Z,3.88
2022-08-16T10:15:24.398Z,4.32
2022-08-16T10:18:00.956Z,3.60
2022-08-16T10:20:31.205Z,3.97
2022-08-16T10:23:03.737Z,3.58
2022-08-16T10:27:16.209Z,4.72
2022-08-16T10:28:30.452Z,3.65
2022-08-16T10:31:04.588Z,3.40
2022-08-16T10:33:34.210Z,4.10
2022-08-16T10:36:04.467Z,4.50
2022-08-16T10:38:36.489Z,4.28
2022-08-16T10:43:31.934Z,4.35
2022-08-16T10:46:01.134Z,3.67
2022-08-16T10:48:29.085Z,3.60
2022-08-16T10:50:58.921Z,3.97
2022-08-16T10:53:32.493Z,4.03
2022-08-16T10:56:06.356Z,3.97
2022-08-16T10:58:52.838Z,4.35
2022-08-16T11:01:43.120Z,4.70
2022-08-16T11:05:04.555Z,4.03
2022-08-16T11:07:43.356Z,3.88
2022-08-16T11:09:43.842Z,4.03
2022-08-16T11:12:13.892Z,4.18
2022-08-16T11:15:11.255Z,4.65
2022-08-16T11:17:32.790Z,3.88
2022-08-16T11:20:36.645Z,4.30
2022-08-16T11:22:48.872Z,4.57
2022-08-16T11:28:09.078Z,4.95
2022-08-16T11:30:39.385Z,4.75
2022-08-16T11:33:07.881Z,4.45
2022-08-16T11:35:43.933Z,4.22
2022-08-16T11:38:46.848Z,3.95
2022-08-16T11:41:09.743Z,3.88
2022-08-16T11:43:38.366Z,3.75
2022-08-16T11:46:44.546Z,3.60
2022-08-16T11:48:57.244Z,4.30
2022-08-16T11:51:24.191Z,3.50
2022-08-16T11:53:51.779Z,4.22
2022-08-16T11:56:19.765Z,3.67
2022-08-16T11:58:57.077Z,3.60
2022-08-16T12:01:29.727Z,3.72
2022-08-16T12:04:13.452Z,3.70
2022-08-16T12:06:40.967Z,3.78
2022-08-16T12:09:08.087Z,4.25
2022-08-16T12:11:36.988Z,3.58
2022-08-16T12:14:07.545Z,4.15
2022-08-16T12:16:35.710Z,3.65
2022-08-16T12:19:10.368Z,3.38
2022-08-16T12:21:58.144Z,3.63
2022-08-16T12:24:25.236Z,4.38
2022-08-16T12:26:53.866Z,3.53
2022-08-16T12:29:20.868Z,3.70
2022-08-16T12:32:00.505Z,3.90
2022-08-16T12:34:36.958Z,3.80
2022-08-16T12:37:08.948Z,4.00
2022-08-16T12:39:38.542Z,4.00
2022-08-16T12:42:19.480Z,3.67
2022-08-16T12:44:49.601Z,4.10
2022-08-16T12:47:36.125Z,3.78
2022-08-16T12:50:04.928Z,3.78
2022-08-16T12:52:33.408Z,4.25
2022-08-16T12:55:02.860Z,3.85
2022-08-16T12:57:36.155Z,3.88
2022-08-16T13:00:07.684Z,3.80
2022-08-16T13:02:36.381Z,3.58
2022-08-16T13:05:04.555Z,3.47
2022-08-16T13:07:37.426Z,3.58
2022-08-16T13:10:21.538Z,3.75
2022-08-16T13:13:02.833Z,3.30
2022-08-16T13:15:30.972Z,3.53
2022-08-16T13:18:26.170Z,4.32
2022-08-16T13:20:50.881Z,3.58
2022-08-16T13:23:18.786Z,3.83
2022-08-16T13:25:49.738Z,3.40
2022-08-16T13:28:18.537Z,3.70
2022-08-16T13:30:53.727Z,3.75
2022-08-16T13:33:31.691Z,3.63
2022-08-16T13:36:00.655Z,4.10
2022-08-16T13:38:32.681Z,3.85
2022-08-16T13:41:08.409Z,3.90
2022-08-16T13:43:38.041Z,3.72
2022-08-16T13:46:05.833Z,4.03
2022-08-16T13:48:43.056Z,3.78
2022-08-16T13:51:18.031Z,3.60
2022-08-16T13:53:59.592Z,3.78
2022-08-16T13:56:39.488Z,3.20
2022-08-16T13:59:19.687Z,3.70
2022-08-16T14:01:55.987Z,3.85
2022-08-16T14:04:31.212Z,3.30
2022-08-16T14:06:59.453Z,3.95
2022-08-16T14:09:28.390Z,4.00
2022-08-16T14:12:00.510Z,3.55
2022-08-16T14:14:30.208Z,4.10
2022-08-16T14:16:59.718Z,3.67
2022-08-16T14:19:29.678Z,3.60
2022-08-16T14:22:15.452Z,3.97
2022-08-16T14:24:47.595Z,3.53
2022-08-16T14:27:18.339Z,3.30
2022-08-16T14:29:49.288Z,4.13
2022-08-16T14:32:32.452Z,3.60
2022-08-16T14:35:03.993Z,3.78
2022-08-16T14:37:32.016Z,3.65
2022-08-16T14:39:59.782Z,3.75
2022-08-16T14:42:26.785Z,3.45
2022-08-16T14:44:54.222Z,3.85
2022-08-16T14:47:22.367Z,3.53
2022-08-16T14:49:52.481Z,3.72
2022-08-16T14:52:44.641Z,4.00
2022-08-16T14:55:10.900Z,3.53
2022-08-16T14:57:39.628Z,4.00
2022-08-16T15:00:11.148Z,3.85
2022-08-16T15:02:47.104Z,3.75
2022-08-16T15:05:16.851Z,3.67
2022-08-16T15:07:44.906Z,3.90
2022-08-16T15:10:24.015Z,3.33
2022-08-16T15:12:56.287Z,3.83
2022-08-16T15:15:27.320Z,4.00
2022-08-16T15:17:57.115Z,3.63
2022-08-16T15:20:29.855Z,4.20
2022-08-16T15:22:57.989Z,3.95
2022-08-16T15:25:33.557Z,3.38
2022-08-16T15:28:04.709Z,4.20
2022-08-16T15:30:58.256Z,4.30
2022-08-16T15:33:23.271Z,3.58
2022-08-16T15:35:55.206Z,3.70
2022-08-16T15:38:55.292Z,3.33
2022-08-16T15:41:09.801Z,3.40
2022-08-16T15:43:40.413Z,3.38
2022-08-16T15:46:35.013Z,3.05
2022-08-16T15:49:15.599Z,3.40
2022-08-16T15:51:44.945Z,4.20
2022-08-16T15:54:21.036Z,3.75
2022-08-16T15:57:03.002Z,4.28
2022-08-16T15:59:48.157Z,3.88
2022-08-16T16:02:27.244Z,3.50
2022-08-16T16:04:55.157Z,4.03
2022-08-16T16:07:22.507Z,3.65
2022-08-16T16:09:49.780Z,3.53
2022-08-16T16:12:53.531Z,3.53
2022-08-16T16:15:07.893Z,4.15
2022-08-16T16:17:35.594Z,5.13
2022-08-16T16:20:05.390Z,5.85
2022-08-16T16:22:40.685Z,4.85
2022-08-16T16:25:07.757Z,3.85
2022-08-16T16:27:36.141Z,3.92
2022-08-16T16:30:04.120Z,4.07
2022-08-16T16:32:51.029Z,4.32
2022-08-16T16:35:18.667Z,3.55
2022-08-16T16:37:46.267Z,3.80
2022-08-16T16:40:23.874Z,3.67
2022-08-16T16:43:00.050Z,3.65
2022-08-16T16:45:34.581Z,3.92
2022-08-16T16:48:11.780Z,3.72
2022-08-16T16:50:44.420Z,3.72
2022-08-16T16:53:17.050Z,3.90
2022-08-16T16:55:47.567Z,3.90
2022-08-16T16:58:43.428Z,3.85
2022-08-16T17:01:20.875Z,3.58
2022-08-16T17:04:19.190Z,3.88
2022-08-16T17:06:53.565Z,3.50
2022-08-16T17:09:31.350Z,3.72
2022-08-16T17:11:58.598Z,3.35
2022-08-16T17:14:32.668Z,3.88
2022-08-16T17:17:04.133Z,4.28
2022-08-16T17:19:32.114Z,3.78
2022-08-16T17:22:00.244Z,3.63
2022-08-16T17:24:39.410Z,4.05
2022-08-16T17:27:08.286Z,4.45
2022-08-16T17:29:45.909Z,4.13
2022-08-16T17:32:47.330Z,4.93
2022-08-16T17:35:08.562Z,4.18
2022-08-16T17:37:48.862Z,4.05
2022-08-16T17:40:47.034Z,3.80
2022-08-16T17:43:14.584Z,4.20
2022-08-16T17:45:43.191Z,3.88
2022-08-16T17:48:10.394Z,4.07
2022-08-16T17:50:37.786Z,4.15
2022-08-16T17:53:06.131Z,3.78
2022-08-16T17:55:35.906Z,3.97
2022-08-16T17:58:18.077Z,3.92
2022-08-16T18:00:54.686Z,4.13
2022-08-16T18:04:02.897Z,4.05
2022-08-16T18:06:23.205Z,4.07
2022-08-16T18:08:55.883Z,3.83
2022-08-16T18:11:27.876Z,4.25
2022-08-16T18:13:55.447Z,3.85
2022-08-16T18:16:22.682Z,3.58
2022-08-16T18:18:49.599Z,4.10
2022-08-16T18:21:35.175Z,3.78
2022-08-16T18:24:02.143Z,3.83
2022-08-16T18:26:29.403Z,3.97
2022-08-16T18:28:56.332Z,3.85
2022-08-16T18:31:23.272Z,3.80
2022-08-16T18:33:54.634Z,4.03
2022-08-16T18:36:23.689Z,4.47
2022-08-16T18:38:51.295Z,3.65
2022-08-16T18:41:19.529Z,4.13
2022-08-16T18:44:23.867Z,4.85
2022-08-16T18:46:33.486Z,3.97
2022-08-16T18:49:00.420Z,4.50
2022-08-16T18:51:27.274Z,3.75
2022-08-16T18:53:54.247Z,4.07
2022-08-16T18:56:21.234Z,4.40
2022-08-16T18:58:48.099Z,4.05
2022-08-16T19:01:15.063Z,4.47
2022-08-16T19:03:42.131Z,4.00
2022-08-16T19:06:13.702Z,4.63
2022-08-16T19:08:42.102Z,4.23
2022-08-16T19:11:23.127Z,5.18
2022-08-16T19:13:50.552Z,4.30
2022-08-16T19:16:17.973Z,3.90
2022-08-16T19:18:48.887Z,4.00
2022-08-16T19:21:16.097Z,3.28
2022-08-16T19:23:43.849Z,3.60
2022-08-16T19:26:25.983Z,4.03
2022-08-16T19:28:58.451Z,3.65
2022-08-16T19:31:30.583Z,4.35
2022-08-16T19:33:58.153Z,3.88
2022-08-16T19:36:35.988Z,4.35
2022-08-16T19:39:06.959Z,4.10
2022-08-16T19:41:37.438Z,3.80
2022-08-16T19:44:05.831Z,4.20
2022-08-16T19:46:33.211Z,4.05
2022-08-16T19:49:00.488Z,4.03
2022-08-16T19:51:27.985Z,4.60
2022-08-16T19:53:54.901Z,4.72
2022-08-16T19:56:25.736Z,4.97
2022-08-16T20:01:42.477Z,4.20
2022-08-16T20:04:12.711Z,3.92
2022-08-16T20:06:40.881Z,4.00
2022-08-16T20:09:07.835Z,3.67
2022-08-16T20:11:51.426Z,4.25
2022-08-16T20:14:24.601Z,3.67
2022-08-16T20:17:00.254Z,4.00
2022-08-16T20:19:53.283Z,4.40
2022-08-16T20:22:49.773Z,3.95
2022-08-16T20:25:14.371Z,4.50
2022-08-16T20:27:49.387Z,3.80
2022-08-16T20:30:17.041Z,3.95
2022-08-16T20:33:02.469Z,3.90
2022-08-16T20:35:35.241Z,4.35
2022-08-16T20:38:05.496Z,5.35
2022-08-16T20:40:35.116Z,4.70
2022-08-16T20:43:23.225Z,5.90
2022-08-16T20:45:50.156Z,5.35
2022-08-16T20:48:17.121Z,5.25
2022-08-16T20:50:45.258Z,4.88
2022-08-16T20:53:12.254Z,5.00
2022-08-16T20:55:44.787Z,4.82
2022-08-16T20:58:11.726Z,5.25
2022-08-16T21:00:38.814Z,4.68
2022-08-16T21:03:10.901Z,4.72
2022-08-16T21:05:44.102Z,5.27
2022-08-16T21:08:50.224Z,5.03
2022-08-16T21:11:08.185Z,5.13
2022-08-16T21:13:46.099Z,5.43
2022-08-16T21:16:44.324Z,5.40
2022-08-16T21:19:40.291Z,5.35
2022-08-16T21:22:49.945Z,5.38
2022-08-16T21:25:25.777Z,5.05
2022-08-16T21:28:41.430Z,5.50
2022-08-16T21:30:43.033Z,5.80
2022-08-16T21:33:18.600Z,5.13
2022-08-16T21:35:47.137Z,5.32
2022-08-16T21:38:28.777Z,4.68
2022-08-16T21:41:00.109Z,6.13
2022-08-16T21:43:41.551Z,5.35
2022-08-16T21:46:11.573Z,5.30
2022-08-16T21:48:49.032Z,6.43
2022-08-16T21:51:26.774Z,5.88
2022-08-16T21:54:08.963Z,5.85
2022-08-16T21:56:35.886Z,6.03
2022-08-16T21:59:07.114Z,6.15
2022-08-16T22:01:43.512Z,5.80
2022-08-16T22:04:36.852Z,6.28
2022-08-16T22:07:06.421Z,6.45
2022-08-16T22:09:33.514Z,6.72
2022-08-16T22:12:00.393Z,6.50
2022-08-16T22:14:27.349Z,6.45
2022-08-16T22:16:54.266Z,6.60
2022-08-16T22:19:23.548Z,6.90
2022-08-16T22:21:50.491Z,7.13
2022-08-16T22:24:17.406Z,7.07
2022-08-16T22:26:45.161Z,6.53
2022-08-16T22:29:13.915Z,7.35
2022-08-16T22:31:41.902Z,7.40
2022-08-16T22:34:09.159Z,7.68
2022-08-16T22:36:36.232Z,7.80
2022-08-16T22:39:06.503Z,7.20
2022-08-16T22:41:34.627Z,7.88
2022-08-16T22:44:02.274Z,8.43
2022-08-16T22:46:30.254Z,7.10
2022-08-16T22:48:57.550Z,8.07
2022-08-16T22:51:26.910Z,7.78
2022-08-16T22:53:55.034Z,8.23
2022-08-16T22:56:22.806Z,8.00
2022-08-16T22:58:49.689Z,8.07
2022-08-16T23:01:17.960Z,7.97
2022-08-16T23:03:45.125Z,8.13
2022-08-16T23:06:12.575Z,7.93
2022-08-16T23:08:41.379Z,8.48
2022-08-16T23:11:10.791Z,8.05
2022-08-16T23:13:38.272Z,7.97
2022-08-16T23:16:21.617Z,8.95
2022-08-16T23:18:49.539Z,8.60
2022-08-16T23:21:18.113Z,8.07
2022-08-16T23:23:46.690Z,8.38
2022-08-16T23:26:46.029Z,8.27
2022-08-16T23:29:04.599Z,8.32
2022-08-16T23:31:32.638Z,8.10
2022-08-16T23:33:59.946Z,8.15
2022-08-16T23:36:26.974Z,7.95
2022-08-16T23:38:54.058Z,8.90
2022-08-16T23:41:21.043Z,9.45
2022-08-16T23:43:47.911Z,8.75
2022-08-16T23:46:17.900Z,8.98
2022-08-16T23:49:56.134Z,9.02
2022-08-16T23:51:32.686Z,9.02
2022-08-16T23:54:00.657Z,9.93
2022-08-16T23:56:27.526Z,9.70
2022-08-16T23:59:05.434Z,9.82
